createdAt,value
2018-05-11T00:00:07.248Z,50.20
2018-05-11T00:02:34.724Z,50.20
2018-05-11T00:05:02.171Z,50.20
2018-05-11T00:07:29.724Z,50.60
2018-05-11T00:09:57.274Z,50.10
2018-05-11T00:12:24.735Z,50.10
2018-05-11T00:14:52.186Z,50.10
2018-05-11T00:17:19.635Z,50.00
2018-05-11T00:19:47.079Z,50.00
2018-05-11T00:22:14.828Z,50.00
2018-05-11T00:24:42.287Z,50.00
2018-05-11T00:27:09.748Z,50.00
2018-05-11T00:29:37.191Z,50.00
2018-05-11T00:32:04.679Z,50.00
2018-05-11T00:34:32.120Z,50.00
2018-05-11T00:36:59.579Z,50.00
2018-05-11T00:39:27.104Z,50.00
2018-05-11T00:41:54.599Z,50.00
2018-05-11T00:44:22.161Z,49.90
2018-05-11T00:46:49.719Z,49.90
2018-05-11T00:49:17.188Z,50.00
2018-05-11T00:51:44.739Z,49.90
2018-05-11T00:54:12.200Z,49.90
2018-05-11T00:56:39.695Z,49.90
2018-05-11T00:59:07.142Z,49.90
2018-05-11T01:01:35.369Z,49.80
2018-05-11T01:04:02.829Z,49.80
2018-05-11T01:06:30.283Z,49.80
2018-05-11T01:08:57.738Z,49.90
2018-05-11T01:11:25.180Z,49.90
2018-05-11T01:13:52.672Z,49.90
2018-05-11T01:16:20.212Z,49.80
2018-05-11T01:18:47.766Z,49.80
2018-05-11T01:21:15.211Z,49.80
2018-05-11T01:23:42.667Z,49.80
2018-05-11T01:26:10.113Z,49.80
2018-05-11T01:28:37.567Z,49.80
2018-05-11T01:31:05.032Z,49.80
2018-05-11T01:33:32.499Z,49.80
2018-05-11T01:35:59.955Z,49.70
2018-05-11T01:38:27.418Z,49.70
2018-05-11T01:40:54.859Z,49.70
2018-05-11T01:43:22.316Z,49.70
2018-05-11T01:45:49.762Z,49.70
2018-05-11T01:48:17.244Z,49.60
2018-05-11T01:50:44.763Z,49.60
2018-05-11T01:53:12.240Z,49.60
2018-05-11T01:55:39.696Z,49.60
2018-05-11T01:58:07.156Z,49.70
2018-05-11T02:00:34.616Z,49.70
2018-05-11T02:03:02.180Z,49.70
2018-05-11T02:05:29.736Z,49.70
2018-05-11T02:07:57.200Z,49.70
2018-05-11T02:10:24.736Z,49.60
2018-05-11T02:12:52.274Z,49.60
2018-05-11T02:15:19.728Z,49.60
2018-05-11T02:17:47.219Z,49.60
2018-05-11T02:20:14.667Z,49.60
2018-05-11T02:22:42.139Z,49.60
2018-05-11T02:25:09.635Z,49.60
2018-05-11T02:27:37.090Z,49.60
2018-05-11T02:30:05.336Z,49.60
2018-05-11T02:32:33.566Z,49.60
2018-05-11T02:35:01.023Z,49.60
2018-05-11T02:37:28.506Z,49.70
2018-05-11T02:39:56.071Z,49.60
2018-05-11T02:42:23.523Z,49.60
2018-05-11T02:44:51.092Z,49.50
2018-05-11T02:47:18.636Z,49.60
2018-05-11T02:49:46.195Z,49.50
2018-05-11T02:52:13.757Z,49.50
2018-05-11T02:54:41.323Z,49.50
2018-05-11T02:57:08.934Z,49.50
2018-05-11T02:59:37.248Z,49.50
2018-05-11T03:02:04.702Z,49.50
2018-05-11T03:04:32.173Z,49.50
2018-05-11T03:06:59.634Z,49.50
2018-05-11T03:09:27.183Z,49.50
2018-05-11T03:11:54.619Z,50.20
2018-05-11T03:14:22.071Z,49.50
2018-05-11T03:16:49.610Z,49.50
2018-05-11T03:19:17.061Z,49.40
2018-05-11T03:21:44.551Z,49.40
2018-05-11T03:24:12.007Z,49.40
2018-05-11T03:26:39.454Z,49.40
2018-05-11T03:29:07.008Z,49.40
2018-05-11T03:31:34.452Z,49.40
2018-05-11T03:34:02.000Z,49.40
2018-05-11T03:36:29.491Z,49.30
2018-05-11T03:38:57.043Z,49.40
2018-05-11T03:41:24.527Z,49.30
2018-05-11T03:43:52.848Z,50.00
2018-05-11T03:46:20.279Z,49.40
2018-05-11T03:48:47.735Z,49.40
2018-05-11T03:51:15.183Z,49.30
2018-05-11T03:53:43.411Z,49.40
2018-05-11T03:56:10.871Z,49.40
2018-05-11T03:58:38.327Z,49.30
2018-05-11T04:01:17.726Z,49.40
2018-05-11T04:03:57.214Z,49.30
2018-05-11T04:06:36.531Z,49.30
2018-05-11T04:09:03.990Z,49.30
2018-05-11T04:11:31.551Z,49.30
2018-05-11T04:13:59.110Z,49.30
2018-05-11T04:16:27.387Z,49.20
2018-05-11T04:18:54.847Z,49.20
2018-05-11T04:21:22.395Z,49.10
2018-05-11T04:23:49.955Z,49.20
2018-05-11T04:26:17.413Z,49.20
2018-05-11T04:28:44.868Z,49.20
2018-05-11T04:31:12.432Z,49.00
2018-05-11T04:33:39.995Z,48.70
2018-05-11T04:36:07.446Z,48.20
2018-05-11T04:38:34.892Z,47.90
2018-05-11T04:41:03.387Z,47.60
2018-05-11T04:43:30.836Z,47.30
2018-05-11T04:45:58.294Z,47.10
2018-05-11T04:48:25.861Z,47.10
2018-05-11T04:50:53.473Z,46.80
2018-05-11T04:53:20.923Z,46.70
2018-05-11T04:55:48.374Z,46.60
2018-05-11T04:58:15.836Z,46.40
2018-05-11T05:00:43.281Z,46.40
2018-05-11T05:03:10.792Z,46.30
2018-05-11T05:05:38.353Z,46.20
2018-05-11T05:08:05.973Z,46.30
2018-05-11T05:10:33.434Z,48.20
2018-05-11T05:13:00.871Z,46.70
2018-05-11T05:15:28.362Z,46.20
2018-05-11T05:17:55.826Z,46.20
2018-05-11T05:20:23.383Z,46.40
2018-05-11T05:22:50.951Z,46.50
2018-05-11T05:25:18.532Z,47.00
2018-05-11T05:27:46.770Z,46.90
2018-05-11T05:30:14.223Z,46.90
2018-05-11T05:32:41.699Z,47.00
2018-05-11T05:35:09.248Z,47.10
2018-05-11T05:37:36.699Z,47.30
2018-05-11T05:40:04.147Z,47.40
2018-05-11T05:42:31.611Z,47.50
2018-05-11T05:44:59.168Z,47.40
2018-05-11T05:47:26.627Z,47.30
2018-05-11T05:49:54.188Z,47.30
2018-05-11T05:52:21.631Z,47.20
2018-05-11T05:54:49.091Z,47.30
2018-05-11T05:57:16.538Z,47.30
2018-05-11T05:59:44.007Z,47.30
2018-05-11T06:02:11.455Z,47.50
2018-05-11T06:04:39.015Z,47.70
2018-05-11T06:07:06.478Z,47.70
2018-05-11T06:09:34.044Z,47.60
2018-05-11T06:12:01.595Z,48.20
2018-05-11T06:14:29.155Z,47.70
2018-05-11T06:16:56.714Z,47.70
2018-05-11T06:19:24.161Z,47.70
2018-05-11T06:21:52.729Z,47.60
2018-05-11T06:24:20.215Z,47.50
2018-05-11T06:26:47.759Z,47.50
2018-05-11T06:29:15.211Z,47.50
2018-05-11T06:31:42.782Z,47.30
2018-05-11T06:34:10.227Z,47.20
2018-05-11T06:36:37.792Z,47.40
2018-05-11T06:39:06.168Z,47.50
2018-05-11T06:41:33.619Z,47.50
2018-05-11T06:44:01.063Z,47.50
2018-05-11T06:46:28.531Z,47.50
2018-05-11T06:48:55.983Z,47.70
2018-05-11T06:51:23.543Z,47.90
2018-05-11T06:53:51.023Z,48.00
2018-05-11T06:56:18.473Z,48.00
2018-05-11T06:58:45.919Z,48.00
2018-05-11T07:01:13.474Z,48.00
2018-05-11T07:03:41.060Z,48.10
2018-05-11T07:06:09.278Z,48.60
2018-05-11T07:08:36.719Z,48.60
2018-05-11T07:11:04.215Z,48.40
2018-05-11T07:13:31.663Z,48.20
2018-05-11T07:15:59.121Z,48.40
2018-05-11T07:18:26.571Z,48.60
2018-05-11T07:20:54.023Z,48.70
2018-05-11T07:23:21.471Z,48.90
2018-05-11T07:25:48.985Z,48.90
2018-05-11T07:28:16.396Z,49.00
2018-05-11T07:30:43.855Z,49.10
2018-05-11T07:33:11.327Z,49.10
2018-05-11T07:35:38.875Z,49.10
2018-05-11T07:38:06.345Z,49.10
2018-05-11T07:40:33.904Z,49.10
2018-05-11T07:43:01.446Z,49.20
2018-05-11T07:45:28.999Z,49.20
2018-05-11T07:47:56.571Z,49.20
2018-05-11T07:50:25.741Z,49.40
2018-05-11T07:52:53.183Z,49.30
2018-05-11T07:55:20.667Z,49.40
2018-05-11T07:57:48.503Z,49.40
2018-05-11T08:00:16.063Z,49.40
2018-05-11T08:02:43.546Z,49.40
2018-05-11T08:05:11.004Z,49.40
2018-05-11T08:07:38.567Z,49.40
2018-05-11T08:10:06.124Z,50.00
2018-05-11T08:12:33.588Z,49.40
2018-05-11T08:15:01.032Z,49.50
2018-05-11T08:17:28.491Z,49.40
2018-05-11T08:19:55.935Z,49.50
2018-05-11T08:22:23.394Z,49.50
2018-05-11T08:24:50.839Z,49.50
2018-05-11T08:27:18.308Z,49.50
2018-05-11T08:29:45.836Z,49.60
2018-05-11T08:32:13.279Z,49.60
2018-05-11T08:34:40.727Z,49.60
2018-05-11T08:37:08.187Z,49.60
2018-05-11T08:39:35.635Z,49.50
2018-05-11T08:42:03.095Z,49.60
2018-05-11T08:44:30.599Z,49.60
2018-05-11T08:46:58.154Z,49.60
2018-05-11T08:49:25.602Z,49.50
2018-05-11T08:51:53.064Z,49.50
2018-05-11T08:54:20.532Z,49.50
2018-05-11T08:56:48.088Z,49.60
2018-05-11T08:59:15.535Z,49.60
2018-05-11T09:01:42.991Z,49.60
2018-05-11T09:04:10.435Z,49.70
2018-05-11T09:06:37.895Z,49.60
2018-05-11T09:09:05.339Z,49.60
2018-05-11T09:11:32.819Z,49.60
2018-05-11T09:14:00.267Z,49.60
2018-05-11T09:16:27.732Z,49.60
2018-05-11T09:18:55.202Z,49.70
2018-05-11T09:21:22.701Z,49.60
2018-05-11T09:23:50.099Z,49.90
2018-05-11T09:26:17.554Z,49.60
2018-05-11T09:28:45.003Z,49.70
2018-05-11T09:31:12.575Z,49.90
2018-05-11T09:33:40.024Z,50.30
2018-05-11T09:36:07.483Z,50.20
2018-05-11T09:38:34.947Z,50.00
2018-05-11T09:41:02.400Z,50.70
2018-05-11T09:43:29.951Z,50.70
2018-05-11T09:45:57.411Z,51.00
2018-05-11T09:48:24.963Z,50.40
2018-05-11T09:50:52.522Z,50.20
2018-05-11T09:53:19.979Z,50.50
2018-05-11T09:55:47.538Z,50.40
2018-05-11T09:58:14.995Z,49.80
2018-05-11T10:00:42.593Z,49.80
2018-05-11T10:03:10.107Z,50.00
2018-05-11T10:05:37.667Z,50.00
2018-05-11T10:08:05.227Z,50.10
2018-05-11T10:10:32.672Z,50.20
2018-05-11T10:13:00.128Z,50.20
2018-05-11T10:15:27.582Z,50.20
2018-05-11T10:17:55.040Z,50.10
2018-05-11T10:20:22.502Z,50.10
2018-05-11T10:22:49.977Z,50.20
2018-05-11T10:25:17.425Z,50.20
2018-05-11T10:27:44.979Z,50.10
2018-05-11T10:30:13.964Z,50.20
2018-05-11T10:32:41.416Z,50.10
2018-05-11T10:35:08.867Z,50.10
2018-05-11T10:37:36.313Z,50.10
2018-05-11T10:40:03.759Z,50.20
2018-05-11T10:42:31.234Z,50.20
2018-05-11T10:44:58.675Z,50.20
2018-05-11T10:47:26.151Z,50.20
2018-05-11T10:49:53.607Z,50.20
2018-05-11T10:52:21.164Z,50.20
2018-05-11T10:54:48.611Z,50.20
2018-05-11T10:57:16.068Z,50.20
2018-05-11T10:59:43.539Z,50.30
2018-05-11T11:02:10.995Z,50.30
2018-05-11T11:04:38.559Z,50.30
2018-05-11T11:07:06.003Z,50.30
2018-05-11T11:09:33.451Z,50.30
2018-05-11T11:12:01.028Z,50.30
2018-05-11T11:14:28.478Z,50.30
2018-05-11T11:16:55.927Z,50.30
2018-05-11T11:19:23.501Z,50.30
2018-05-11T11:21:51.039Z,50.30
2018-05-11T11:24:18.607Z,50.30
2018-05-11T11:26:46.056Z,50.30
2018-05-11T11:29:13.511Z,50.30
2018-05-11T11:31:40.975Z,50.40
2018-05-11T11:34:08.426Z,50.40
2018-05-11T11:36:36.019Z,50.40
2018-05-11T11:39:04.259Z,50.40
2018-05-11T11:41:31.819Z,50.40
2018-05-11T11:43:59.278Z,50.40
2018-05-11T11:46:26.731Z,50.40
2018-05-11T11:48:54.193Z,50.40
2018-05-11T11:51:22.403Z,51.00
2018-05-11T11:53:49.859Z,50.50
2018-05-11T11:56:17.313Z,50.50
2018-05-11T11:58:45.559Z,50.40
2018-05-11T12:01:13.099Z,50.40
2018-05-11T12:03:40.551Z,50.30
2018-05-11T12:06:08.008Z,50.30
2018-05-11T12:08:35.463Z,50.30
2018-05-11T12:11:02.911Z,50.30
2018-05-11T12:13:30.372Z,50.40
2018-05-11T12:15:57.819Z,50.40
2018-05-11T12:18:25.293Z,50.40
2018-05-11T12:20:52.843Z,50.40
2018-05-11T12:23:20.304Z,50.40
2018-05-11T12:25:47.859Z,50.40
2018-05-11T12:28:15.420Z,50.40
2018-05-11T12:30:42.860Z,50.40
2018-05-11T12:33:10.310Z,50.40
2018-05-11T12:35:37.759Z,50.30
2018-05-11T12:38:05.219Z,50.30
2018-05-11T12:40:32.691Z,50.30
2018-05-11T12:43:00.263Z,50.30
2018-05-11T12:45:27.817Z,50.00
2018-05-11T12:47:55.275Z,50.00
2018-05-11T12:50:22.823Z,50.50
2018-05-11T12:52:50.390Z,50.40
2018-05-11T12:55:17.831Z,50.40
2018-05-11T12:57:45.375Z,50.30
2018-05-11T13:00:12.851Z,50.50
2018-05-11T13:02:41.023Z,50.30
2018-05-11T13:05:08.587Z,50.80
2018-05-11T13:07:36.150Z,50.90
2018-05-11T13:10:03.615Z,50.80
2018-05-11T13:12:31.055Z,55.20
2018-05-11T13:14:58.611Z,53.20
2018-05-11T13:17:26.058Z,53.80
2018-05-11T13:19:53.511Z,51.70
2018-05-11T13:22:20.979Z,54.90
2018-05-11T13:24:48.507Z,53.50
2018-05-11T13:27:15.958Z,52.30
2018-05-11T13:29:43.415Z,51.80
2018-05-11T13:32:10.863Z,51.40
2018-05-11T13:34:38.331Z,54.60
2018-05-11T13:37:05.775Z,54.70
2018-05-11T13:39:33.231Z,53.20
2018-05-11T13:42:00.745Z,51.10
2018-05-11T13:44:28.179Z,49.30
2018-05-11T13:46:55.635Z,49.00
2018-05-11T13:49:23.144Z,47.90
2018-05-11T13:51:50.543Z,47.50
2018-05-11T13:54:18.107Z,47.20
2018-05-11T13:56:45.563Z,45.40
2018-05-11T13:59:13.122Z,44.70
2018-05-11T14:01:40.567Z,44.00
2018-05-11T14:04:08.033Z,43.30
2018-05-11T14:06:35.482Z,42.90
2018-05-11T14:09:02.943Z,43.20
2018-05-11T14:11:30.407Z,42.40
2018-05-11T14:13:57.959Z,42.40
2018-05-11T14:16:25.408Z,43.60
2018-05-11T14:18:52.858Z,42.40
2018-05-11T14:21:20.407Z,41.80
2018-05-11T14:23:48.014Z,42.40
2018-05-11T14:26:15.459Z,42.20
2018-05-11T14:28:42.935Z,40.90
2018-05-11T14:31:11.143Z,40.30
2018-05-11T14:33:38.594Z,40.30
2018-05-11T14:36:06.058Z,41.10
2018-05-11T14:38:33.551Z,42.10
2018-05-11T14:41:01.027Z,40.70
2018-05-11T14:43:29.240Z,39.30
2018-05-11T14:45:56.690Z,39.00
2018-05-11T14:48:24.135Z,40.60
2018-05-11T14:50:51.645Z,39.60
2018-05-11T14:53:19.196Z,39.60
2018-05-11T14:55:46.668Z,40.00
2018-05-11T14:58:14.207Z,41.60
2018-05-11T15:00:41.735Z,43.50
2018-05-11T15:03:09.184Z,44.60
2018-05-11T15:05:36.751Z,45.00
2018-05-11T15:08:04.240Z,44.50
2018-05-11T15:10:31.695Z,43.60
2018-05-11T15:12:59.152Z,43.30
2018-05-11T15:15:26.721Z,41.60
2018-05-11T15:17:54.154Z,41.40
2018-05-11T15:20:21.606Z,41.20
2018-05-11T15:22:49.086Z,41.90
2018-05-11T15:25:16.631Z,41.50
2018-05-11T15:27:44.089Z,42.50
2018-05-11T15:30:11.646Z,43.70
2018-05-11T15:32:39.091Z,44.20
2018-05-11T15:35:06.543Z,41.60
2018-05-11T15:37:33.991Z,41.40
2018-05-11T15:40:01.468Z,40.90
2018-05-11T15:42:28.923Z,41.50
2018-05-11T15:44:56.385Z,40.60
2018-05-11T15:47:23.943Z,40.50
2018-05-11T15:49:51.617Z,40.60
2018-05-11T15:52:19.229Z,40.50
2018-05-11T15:54:46.682Z,40.20
2018-05-11T15:57:14.172Z,39.70
2018-05-11T15:59:43.943Z,40.50
2018-05-11T16:02:11.433Z,41.10
2018-05-11T16:04:38.999Z,39.60
2018-05-11T16:07:06.470Z,40.90
2018-05-11T16:09:35.446Z,40.40
2018-05-11T16:12:02.891Z,40.40
2018-05-11T16:14:30.335Z,39.70
2018-05-11T16:16:57.802Z,40.10
2018-05-11T16:19:25.327Z,40.60
2018-05-11T16:21:52.731Z,40.30
2018-05-11T16:24:20.776Z,40.00
2018-05-11T16:26:48.253Z,39.80
2018-05-11T16:29:16.841Z,40.00
2018-05-11T16:31:45.544Z,39.20
2018-05-11T16:34:13.429Z,39.80
2018-05-11T16:36:41.662Z,39.20
2018-05-11T16:39:09.110Z,39.20
2018-05-11T16:41:36.666Z,39.40
2018-05-11T16:44:04.120Z,39.30
2018-05-11T16:46:31.583Z,39.90
2018-05-11T16:48:59.032Z,39.20
2018-05-11T16:51:26.499Z,39.30
2018-05-11T16:53:53.947Z,39.20
2018-05-11T16:56:21.579Z,39.20
2018-05-11T16:58:49.052Z,39.50
2018-05-11T17:01:16.508Z,39.80
2018-05-11T17:03:43.978Z,39.40
2018-05-11T17:06:11.435Z,40.00
2018-05-11T17:08:38.889Z,39.30
2018-05-11T17:11:06.354Z,38.90
2018-05-11T17:13:33.798Z,39.30
2018-05-11T17:16:01.359Z,40.10
2018-05-11T17:18:28.892Z,40.70
2018-05-11T17:20:56.370Z,41.10
2018-05-11T17:23:23.831Z,41.40
2018-05-11T17:25:51.359Z,41.60
2018-05-11T17:28:18.816Z,42.00
2018-05-11T17:30:46.308Z,42.00
2018-05-11T17:33:13.862Z,42.10
2018-05-11T17:35:41.338Z,42.30
2018-05-11T17:38:08.866Z,42.70
2018-05-11T17:40:36.319Z,43.60
2018-05-11T17:43:03.763Z,43.70
2018-05-11T17:45:31.215Z,44.60
2018-05-11T17:47:58.767Z,43.70
2018-05-11T17:50:26.250Z,43.60
2018-05-11T17:52:53.740Z,43.70
2018-05-11T17:55:21.985Z,44.10
2018-05-11T17:57:49.435Z,44.00
2018-05-11T18:00:16.901Z,44.10
2018-05-11T18:02:44.343Z,44.20
2018-05-11T18:05:11.786Z,44.20
2018-05-11T18:07:39.247Z,44.30
2018-05-11T18:10:06.722Z,44.40
2018-05-11T18:12:34.140Z,44.50
2018-05-11T18:15:01.627Z,45.30
2018-05-11T18:17:29.195Z,44.70
2018-05-11T18:19:56.638Z,44.80
2018-05-11T18:22:24.096Z,44.80
2018-05-11T18:24:51.544Z,44.80
2018-05-11T18:27:19.015Z,44.80
2018-05-11T18:29:46.463Z,44.90
2018-05-11T18:32:13.916Z,45.00
2018-05-11T18:34:41.363Z,45.00
2018-05-11T18:37:08.819Z,45.10
2018-05-11T18:39:36.312Z,45.20
2018-05-11T18:42:04.554Z,46.00
2018-05-11T18:44:32.011Z,45.30
2018-05-11T18:46:59.507Z,45.30
2018-05-11T18:49:26.927Z,45.40
2018-05-11T18:51:54.387Z,45.50
2018-05-11T18:54:22.055Z,45.50
2018-05-11T18:56:49.291Z,45.60
2018-05-11T18:59:16.756Z,45.70
2018-05-11T19:01:44.333Z,45.70
2018-05-11T19:04:11.787Z,45.70
2018-05-11T19:06:39.335Z,45.80
2018-05-11T19:09:06.824Z,45.80
2018-05-11T19:11:34.351Z,45.90
2018-05-11T19:14:01.907Z,46.00
2018-05-11T19:16:29.363Z,46.00
2018-05-11T19:18:56.809Z,46.20
2018-05-11T19:21:24.263Z,46.50
2018-05-11T19:23:51.715Z,46.80
2018-05-11T19:26:19.178Z,46.90
2018-05-11T19:28:46.632Z,46.90
2018-05-11T19:31:14.075Z,46.90
2018-05-11T19:33:41.531Z,46.90
2018-05-11T19:36:08.980Z,46.90
2018-05-11T19:38:36.435Z,46.90
2018-05-11T19:41:03.915Z,46.90
2018-05-11T19:43:31.451Z,47.10
2018-05-11T19:45:58.932Z,47.20
2018-05-11T19:48:26.563Z,47.20
2018-05-11T19:50:53.931Z,47.10
2018-05-11T19:53:21.400Z,47.20
2018-05-11T19:55:48.858Z,47.20
2018-05-11T19:58:16.303Z,47.20
2018-05-11T20:00:43.746Z,47.20
2018-05-11T20:03:11.215Z,47.30
2018-05-11T20:05:38.691Z,47.30
2018-05-11T20:08:07.671Z,47.40
2018-05-11T20:10:35.132Z,47.40
2018-05-11T20:13:02.577Z,47.40
2018-05-11T20:15:30.027Z,47.40
2018-05-11T20:17:57.486Z,47.40
2018-05-11T20:20:24.942Z,47.40
2018-05-11T20:22:52.515Z,48.10
2018-05-11T20:25:19.967Z,47.50
2018-05-11T20:27:47.426Z,47.60
2018-05-11T20:30:14.887Z,47.60
2018-05-11T20:32:42.390Z,47.60
2018-05-11T20:35:09.847Z,47.70
2018-05-11T20:37:37.254Z,47.70
2018-05-11T20:40:04.799Z,47.70
2018-05-11T20:42:32.360Z,47.80
2018-05-11T20:44:59.799Z,47.80
2018-05-11T20:47:27.272Z,47.80
2018-05-11T20:49:55.115Z,47.90
2018-05-11T20:52:22.765Z,47.90
2018-05-11T20:54:50.321Z,47.90
2018-05-11T20:57:17.774Z,47.90
2018-05-11T20:59:45.235Z,48.00
2018-05-11T21:02:13.352Z,48.00
2018-05-11T21:04:40.800Z,48.00
2018-05-11T21:07:08.254Z,48.00
2018-05-11T21:09:35.786Z,48.10
2018-05-11T21:12:03.223Z,48.10
2018-05-11T21:14:31.569Z,48.10
2018-05-11T21:16:59.779Z,48.20
2018-05-11T21:19:27.236Z,48.20
2018-05-11T21:21:54.821Z,48.20
2018-05-11T21:24:22.275Z,48.30
2018-05-11T21:26:49.719Z,48.40
2018-05-11T21:29:17.171Z,48.40
2018-05-11T21:31:44.619Z,48.50
2018-05-11T21:34:12.172Z,48.50
2018-05-11T21:36:40.710Z,48.50
2018-05-11T21:39:08.175Z,48.50
2018-05-11T21:41:36.687Z,48.50
2018-05-11T21:44:04.148Z,48.50
2018-05-11T21:46:32.623Z,48.50
2018-05-11T21:49:00.119Z,48.50
2018-05-11T21:51:28.545Z,48.80
2018-05-11T21:53:56.043Z,48.70
2018-05-11T21:56:23.506Z,48.80
2018-05-11T21:58:51.059Z,48.80
2018-05-11T22:01:18.508Z,48.70
2018-05-11T22:03:45.973Z,48.60
2018-05-11T22:06:13.422Z,48.50
2018-05-11T22:08:40.982Z,48.50
2018-05-11T22:11:08.439Z,48.40
2018-05-11T22:13:35.994Z,48.40
2018-05-11T22:16:03.347Z,49.00
2018-05-11T22:18:30.804Z,48.30
2018-05-11T22:20:58.253Z,49.00
2018-05-11T22:23:25.732Z,48.30
2018-05-11T22:25:53.287Z,48.30
2018-05-11T22:28:20.740Z,48.30
2018-05-11T22:30:48.199Z,48.20
2018-05-11T22:33:15.752Z,48.20
2018-05-11T22:35:43.308Z,48.20
2018-05-11T22:38:10.863Z,48.20
2018-05-11T22:40:38.324Z,48.10
2018-05-11T22:43:05.779Z,48.00
2018-05-11T22:45:33.350Z,48.00
2018-05-11T22:48:01.567Z,48.60
2018-05-11T22:50:29.060Z,48.00
2018-05-11T22:52:56.512Z,48.00
2018-05-11T22:55:23.982Z,48.00
2018-05-11T22:57:51.427Z,48.00
2018-05-11T23:00:37.699Z,48.00
2018-05-11T23:03:05.168Z,48.00
2018-05-11T23:05:32.614Z,48.60
2018-05-11T23:08:00.060Z,48.00
2018-05-11T23:10:27.515Z,48.00
2018-05-11T23:12:55.031Z,48.00
2018-05-11T23:15:23.275Z,48.00
2018-05-11T23:17:50.764Z,48.00
2018-05-11T23:20:18.291Z,48.00
2018-05-11T23:22:45.751Z,48.00
2018-05-11T23:25:13.303Z,48.00
2018-05-11T23:27:40.844Z,48.00
2018-05-11T23:30:08.322Z,47.90
2018-05-11T23:32:35.779Z,47.80
2018-05-11T23:35:03.503Z,47.80
2018-05-11T23:37:30.965Z,47.80
2018-05-11T23:39:58.452Z,47.90
2018-05-11T23:42:25.894Z,47.80
2018-05-11T23:44:53.360Z,47.90
2018-05-11T23:47:22.048Z,47.90
2018-05-11T23:49:49.551Z,47.90
2018-05-11T23:52:16.959Z,47.90
2018-05-11T23:54:44.410Z,47.90
2018-05-11T23:57:11.869Z,47.90
2018-05-11T23:59:39.335Z,47.90
